METAR Formatted Surface Weather Observation
Issued by NWS

Home | Current Version | Previous Version | Text Only | Print | Product List | Glossary On
Versions: 1 2 3 4 5 6 7 8 9 10 11 12 13 14 15 16 17 18 19 20 21 22 23 24 25 26 27 28 29 30 31 32 33 34
000
SAHW40 PHFO 171758
MTRBKH
METAR PHBK 171756Z AUTO 09003KT 10SM CLR 18/15 A3016 RMK AO2 SLP216
T01780150 10189 20161 51014



USA.gov is the U.S. government's official web portal to all federal, state and local government web resources and services.